createdAt,value
2022-10-18T00:00:45.680Z,25.38
2022-10-18T00:03:12.385Z,34.45
2022-10-18T00:05:39.331Z,27.98
2022-10-18T00:08:06.033Z,28.75
2022-10-18T00:10:32.751Z,29.98
2022-10-18T00:12:59.377Z,31.50
2022-10-18T00:15:29.168Z,29.90
2022-10-18T00:17:56.226Z,24.70
2022-10-18T00:20:22.984Z,25.92
2022-10-18T00:22:49.604Z,24.75
2022-10-18T00:25:17.535Z,27.63
2022-10-18T00:27:44.916Z,25.70
2022-10-18T00:30:13.147Z,29.67
2022-10-18T00:32:44.101Z,25.15
2022-10-18T00:35:10.692Z,30.55
2022-10-18T00:37:37.523Z,27.92
2022-10-18T00:40:07.788Z,26.15
2022-10-18T00:42:38.008Z,25.63
2022-10-18T00:45:37.127Z,26.95
2022-10-18T00:48:11.033Z,26.52
2022-10-18T00:50:37.625Z,26.80
2022-10-18T00:53:10.169Z,30.70
2022-10-18T00:55:36.989Z,27.42
2022-10-18T00:58:05.252Z,25.65
2022-10-18T01:00:32.258Z,32.53
2022-10-18T01:03:03.787Z,29.85
2022-10-18T01:05:33.113Z,30.50
2022-10-18T01:08:36.679Z,24.80
2022-10-18T01:11:09.062Z,28.63
2022-10-18T01:13:55.052Z,26.77
2022-10-18T01:16:38.131Z,31.48
2022-10-18T01:19:29.339Z,29.00
2022-10-18T01:22:19.212Z,29.85
2022-10-18T01:25:10.578Z,25.55
2022-10-18T01:27:45.411Z,35.20
2022-10-18T01:30:30.331Z,25.75
2022-10-18T01:33:11.571Z,32.60
2022-10-18T01:35:44.562Z,25.17
2022-10-18T01:38:18.003Z,33.92
2022-10-18T01:40:48.061Z,31.27
2022-10-18T01:43:20.151Z,28.95
2022-10-18T01:45:47.504Z,27.73
2022-10-18T01:48:17.806Z,27.00
2022-10-18T01:50:45.650Z,29.58
2022-10-18T01:53:31.538Z,33.78
2022-10-18T01:56:27.487Z,31.25
2022-10-18T01:59:21.954Z,29.85
2022-10-18T02:02:07.025Z,25.60
2022-10-18T02:04:52.753Z,24.13
2022-10-18T02:07:35.109Z,27.38
2022-10-18T02:12:46.926Z,28.00
2022-10-18T02:15:18.949Z,26.65
2022-10-18T02:17:49.233Z,28.30
2022-10-18T02:20:19.961Z,30.52
2022-10-18T02:22:49.551Z,28.38
2022-10-18T02:25:23.920Z,32.92
2022-10-18T02:27:51.145Z,26.52
2022-10-18T02:30:18.157Z,31.65
2022-10-18T02:32:52.548Z,30.38
2022-10-18T02:35:37.570Z,33.58
2022-10-18T02:38:07.198Z,31.40
2022-10-18T02:40:33.909Z,28.40
2022-10-18T02:43:00.426Z,29.90
2022-10-18T02:45:31.867Z,31.25
2022-10-18T02:48:04.424Z,29.33
2022-10-18T02:50:30.994Z,30.10
2022-10-18T02:53:00.227Z,27.52
2022-10-18T02:57:58.381Z,28.23
2022-10-18T03:00:24.907Z,29.77
2022-10-18T03:02:54.957Z,29.58
2022-10-18T03:05:21.486Z,26.17
2022-10-18T03:07:56.806Z,24.58
2022-10-18T03:10:30.402Z,29.90
2022-10-18T03:12:56.886Z,30.67
2022-10-18T03:15:26.721Z,21.30
2022-10-18T03:17:53.212Z,27.38
2022-10-18T03:20:19.929Z,29.60
2022-10-18T03:22:46.623Z,31.67
2022-10-18T03:25:13.113Z,29.90
2022-10-18T03:27:39.662Z,31.23
2022-10-18T03:30:06.869Z,35.30
2022-10-18T03:32:33.625Z,29.52
2022-10-18T03:35:00.307Z,30.40
2022-10-18T03:37:26.827Z,31.90
2022-10-18T03:39:53.319Z,31.40
2022-10-18T03:42:19.807Z,28.33
2022-10-18T03:44:46.291Z,27.15
2022-10-18T03:47:14.879Z,36.30
2022-10-18T03:49:41.343Z,31.70
2022-10-18T03:52:07.903Z,34.13
2022-10-18T03:54:34.433Z,28.58
2022-10-18T03:57:01.074Z,32.25
2022-10-18T03:59:30.572Z,32.78
2022-10-18T04:02:06.107Z,30.02
2022-10-18T04:04:32.767Z,33.70
2022-10-18T04:06:59.418Z,26.67
2022-10-18T04:09:26.519Z,25.60
2022-10-18T04:11:53.515Z,25.15
2022-10-18T04:14:25.096Z,30.38
2022-10-18T04:16:51.852Z,24.50
2022-10-18T04:19:18.470Z,34.58
2022-10-18T04:21:45.180Z,29.25
2022-10-18T04:24:13.618Z,25.25
2022-10-18T04:26:40.180Z,23.67
2022-10-18T04:29:06.928Z,29.55
2022-10-18T04:31:37.566Z,28.33
2022-10-18T04:34:04.487Z,30.13
2022-10-18T04:36:31.971Z,28.70
2022-10-18T04:38:58.504Z,26.77
2022-10-18T04:41:26.988Z,28.08
2022-10-18T04:43:53.645Z,27.30
2022-10-18T04:46:20.317Z,26.33
2022-10-18T04:48:46.908Z,31.60
2022-10-18T04:51:13.562Z,30.33
2022-10-18T04:53:40.107Z,33.08
2022-10-18T04:56:07.345Z,24.25
2022-10-18T04:58:38.117Z,35.75
2022-10-18T05:01:09.833Z,31.63
2022-10-18T05:03:36.374Z,32.03
2022-10-18T05:06:03.690Z,32.45
2022-10-18T05:08:34.344Z,26.75
2022-10-18T05:11:01.663Z,28.13
2022-10-18T05:13:28.436Z,27.92
2022-10-18T05:15:55.482Z,28.05
2022-10-18T05:18:23.224Z,27.20
2022-10-18T05:20:49.775Z,29.33
2022-10-18T05:23:16.304Z,34.28
2022-10-18T05:25:43.607Z,30.05
2022-10-18T05:28:21.079Z,34.50
2022-10-18T05:31:07.780Z,33.55
2022-10-18T05:33:34.623Z,31.42
2022-10-18T05:36:01.511Z,25.58
2022-10-18T05:38:30.976Z,27.55
2022-10-18T05:40:58.761Z,36.80
2022-10-18T05:43:29.016Z,32.53
2022-10-18T05:45:55.885Z,31.25
2022-10-18T05:48:22.655Z,33.92
2022-10-18T05:50:49.218Z,29.48
2022-10-18T05:53:35.120Z,29.80
2022-10-18T05:56:03.270Z,33.60
2022-10-18T05:58:29.788Z,31.80
2022-10-18T06:01:01.695Z,34.45
2022-10-18T06:06:02.696Z,25.63
2022-10-18T06:08:30.093Z,30.67
2022-10-18T06:10:59.479Z,32.08
2022-10-18T06:13:26.294Z,28.02
2022-10-18T06:15:57.478Z,25.75
2022-10-18T06:18:24.054Z,24.88
2022-10-18T06:20:56.747Z,25.33
2022-10-18T06:23:23.222Z,34.65
2022-10-18T06:25:52.408Z,26.80
2022-10-18T06:28:18.927Z,34.53
2022-10-18T06:30:45.567Z,30.48
2022-10-18T06:33:12.059Z,25.02
2022-10-18T06:35:38.560Z,35.22
2022-10-18T06:38:06.304Z,27.30
2022-10-18T06:40:37.932Z,29.38
2022-10-18T06:43:20.470Z,30.40
2022-10-18T06:45:48.931Z,26.73
2022-10-18T06:48:15.649Z,29.40
2022-10-18T06:50:42.279Z,29.08
2022-10-18T06:53:09.102Z,32.10
2022-10-18T06:55:36.081Z,32.33
2022-10-18T06:58:02.832Z,34.67
2022-10-18T07:00:29.505Z,32.22
2022-10-18T07:02:57.219Z,37.58
2022-10-18T07:05:23.957Z,35.00
2022-10-18T07:07:54.230Z,33.13
2022-10-18T07:10:23.928Z,35.25
2022-10-18T07:12:53.508Z,32.67
2022-10-18T07:15:24.151Z,28.50
2022-10-18T07:17:50.825Z,36.30
2022-10-18T07:20:17.557Z,35.28
2022-10-18T07:22:44.067Z,37.05
2022-10-18T07:25:10.599Z,22.98
2022-10-18T07:27:38.719Z,28.95
2022-10-18T07:30:09.918Z,30.05
2022-10-18T07:32:37.219Z,31.23
2022-10-18T07:35:04.040Z,29.67
2022-10-18T07:37:30.596Z,42.78
2022-10-18T07:39:57.077Z,47.28
2022-10-18T07:42:23.703Z,31.98
2022-10-18T07:44:50.655Z,38.15
2022-10-18T07:47:17.389Z,32.85
2022-10-18T07:49:44.056Z,37.28
2022-10-18T07:52:11.523Z,39.78
2022-10-18T07:54:38.182Z,36.40
2022-10-18T07:57:05.131Z,31.95
2022-10-18T07:59:31.746Z,31.52
2022-10-18T08:01:58.420Z,32.67
2022-10-18T08:04:25.364Z,40.95
2022-10-18T08:06:52.151Z,32.63
2022-10-18T08:09:18.793Z,37.90
2022-10-18T08:11:45.585Z,39.38
2022-10-18T08:14:13.283Z,36.65
2022-10-18T08:16:42.606Z,29.85
2022-10-18T08:19:11.697Z,37.25
2022-10-18T08:21:38.303Z,42.13
2022-10-18T08:24:05.384Z,36.65
2022-10-18T08:26:32.493Z,40.65
2022-10-18T08:29:17.944Z,33.28
2022-10-18T08:31:50.985Z,33.33
2022-10-18T08:34:19.875Z,42.72
2022-10-18T08:36:46.909Z,39.00
2022-10-18T08:39:13.483Z,47.70
2022-10-18T08:42:16.876Z,43.00
2022-10-18T08:44:54.602Z,34.67
2022-10-18T08:47:27.255Z,45.28
2022-10-18T08:50:14.029Z,43.92
2022-10-18T08:53:10.635Z,42.28
2022-10-18T08:55:43.046Z,43.05
2022-10-18T08:58:30.774Z,50.90
2022-10-18T09:01:31.479Z,49.20
2022-10-18T09:04:41.834Z,39.08
2022-10-18T09:07:31.424Z,44.58
2022-10-18T09:10:06.935Z,38.33
2022-10-18T09:13:05.106Z,43.60
2022-10-18T09:15:46.905Z,38.17
2022-10-18T09:18:54.162Z,38.05
2022-10-18T09:21:29.514Z,55.53
2022-10-18T09:24:18.274Z,37.33
2022-10-18T09:26:47.992Z,34.45
2022-10-18T09:29:26.768Z,38.63
2022-10-18T09:32:11.271Z,40.15
2022-10-18T09:34:47.635Z,41.47
2022-10-18T09:37:20.904Z,38.90
2022-10-18T09:39:50.518Z,36.90
2022-10-18T09:42:38.043Z,40.75
2022-10-18T09:45:22.344Z,55.08
2022-10-18T09:47:54.190Z,40.22
2022-10-18T09:53:07.003Z,35.58
2022-10-18T09:55:39.840Z,41.83
2022-10-18T09:58:10.328Z,42.35
2022-10-18T10:00:48.100Z,51.85
2022-10-18T10:03:15.727Z,45.22
2022-10-18T10:05:43.675Z,50.25
2022-10-18T10:08:11.154Z,46.38
2022-10-18T10:10:47.091Z,43.65
2022-10-18T10:13:26.174Z,43.70
2022-10-18T10:15:56.565Z,45.00
2022-10-18T10:18:34.325Z,45.03
2022-10-18T10:21:05.696Z,52.20
2022-10-18T10:23:45.821Z,41.10
2022-10-18T10:26:29.177Z,48.83
2022-10-18T10:28:55.800Z,46.22
2022-10-18T10:31:25.366Z,59.95
2022-10-18T10:34:04.816Z,58.05
2022-10-18T10:36:33.575Z,58.42
2022-10-18T10:39:18.687Z,73.65
2022-10-18T10:42:00.703Z,82.63
2022-10-18T10:44:34.165Z,49.03
2022-10-18T10:47:03.126Z,61.47
2022-10-18T10:49:41.268Z,55.38
2022-10-18T10:52:27.231Z,57.80
2022-10-18T10:55:22.990Z,60.63
2022-10-18T10:57:49.994Z,67.57
2022-10-18T11:03:33.752Z,71.72
2022-10-18T11:06:01.818Z,50.28
2022-10-18T11:08:35.787Z,67.03
2022-10-18T11:11:22.225Z,56.47
2022-10-18T11:14:07.327Z,63.60
2022-10-18T11:16:54.537Z,59.83
2022-10-18T11:19:34.298Z,63.67
2022-10-18T11:22:02.644Z,63.97
2022-10-18T11:24:29.379Z,56.95
2022-10-18T11:27:05.787Z,52.72
2022-10-18T11:29:55.500Z,47.08
2022-10-18T11:32:55.684Z,58.90
2022-10-18T11:35:56.165Z,61.63
2022-10-18T11:39:03.173Z,71.25
2022-10-18T11:41:44.371Z,51.95
2022-10-18T11:44:32.034Z,61.35
2022-10-18T11:47:27.364Z,59.33
2022-10-18T11:50:01.450Z,64.07
2022-10-18T11:52:49.101Z,58.33
2022-10-18T11:55:48.400Z,79.15
2022-10-18T11:58:34.988Z,61.35
2022-10-18T12:01:13.691Z,62.65
2022-10-18T12:04:08.986Z,76.72
2022-10-18T12:06:43.523Z,68.43
2022-10-18T12:09:32.880Z,92.57
2022-10-18T12:12:17.104Z,64.93
2022-10-18T12:14:51.177Z,86.97
2022-10-18T12:17:49.815Z,65.82
2022-10-18T12:20:26.223Z,63.88
2022-10-18T12:22:59.692Z,57.78
2022-10-18T12:25:28.794Z,75.38
2022-10-18T12:30:53.557Z,70.10
2022-10-18T12:33:28.375Z,77.82
2022-10-18T12:36:15.545Z,66.22
2022-10-18T12:38:46.169Z,63.25
2022-10-18T12:41:30.401Z,82.97
2022-10-18T12:44:05.172Z,72.93
2022-10-18T12:46:54.036Z,64.15
2022-10-18T12:49:23.652Z,61.90
2022-10-18T12:51:59.630Z,73.28
2022-10-18T12:54:36.042Z,73.75
2022-10-18T12:57:05.577Z,64.70
2022-10-18T12:59:31.956Z,63.05
2022-10-18T13:02:20.554Z,65.15
2022-10-18T13:04:48.293Z,50.67
2022-10-18T13:07:21.837Z,65.22
2022-10-18T13:10:10.039Z,61.70
2022-10-18T13:12:50.569Z,60.92
2022-10-18T13:15:36.181Z,61.10
2022-10-18T13:18:18.948Z,63.40
2022-10-18T13:21:08.352Z,62.80
2022-10-18T13:23:57.626Z,59.83
2022-10-18T13:26:34.226Z,61.03
2022-10-18T13:29:06.136Z,61.20
2022-10-18T13:31:45.507Z,58.42
2022-10-18T13:34:29.829Z,62.72
2022-10-18T13:37:14.084Z,65.63
2022-10-18T13:39:40.867Z,54.88
2022-10-18T13:42:29.560Z,53.85
2022-10-18T13:45:45.604Z,53.05
2022-10-18T13:48:30.282Z,53.15
2022-10-18T13:51:17.511Z,57.38
2022-10-18T13:54:01.912Z,60.42
2022-10-18T13:56:53.175Z,58.08
2022-10-18T14:00:03.253Z,57.67
2022-10-18T14:03:31.718Z,57.75
2022-10-18T14:06:08.778Z,51.75
2022-10-18T14:08:41.975Z,48.20
2022-10-18T14:11:47.390Z,65.45
2022-10-18T14:14:43.961Z,59.28
2022-10-18T14:17:25.825Z,71.20
2022-10-18T14:22:47.720Z,44.92
2022-10-18T14:25:35.894Z,53.42
2022-10-18T14:28:13.651Z,43.30
2022-10-18T14:30:56.614Z,36.20
2022-10-18T14:33:48.015Z,40.28
2022-10-18T14:36:22.050Z,47.30
2022-10-18T14:38:53.273Z,39.05
2022-10-18T14:41:31.261Z,45.22
2022-10-18T14:44:24.063Z,35.60
2022-10-18T14:47:20.646Z,43.35
2022-10-18T14:49:47.795Z,43.78
2022-10-18T14:52:36.309Z,48.95
2022-10-18T14:55:03.758Z,41.42
2022-10-18T14:57:36.505Z,43.42
2022-10-18T15:00:09.306Z,47.17
2022-10-18T15:02:43.870Z,47.78
2022-10-18T15:05:28.608Z,36.80
2022-10-18T15:07:59.579Z,46.65
2022-10-18T15:10:33.568Z,50.45
2022-10-18T15:13:11.122Z,44.35
2022-10-18T15:15:47.760Z,41.80
2022-10-18T15:18:26.635Z,43.20
2022-10-18T15:21:24.074Z,46.10
2022-10-18T15:23:51.785Z,44.53
2022-10-18T15:26:26.730Z,48.35
2022-10-18T15:28:56.591Z,46.30
2022-10-18T15:31:31.503Z,39.88
2022-10-18T15:34:22.688Z,47.67
2022-10-18T15:36:51.451Z,37.97
2022-10-18T15:39:21.064Z,39.83
2022-10-18T15:41:55.762Z,47.72
2022-10-18T15:44:32.337Z,39.80
2022-10-18T15:47:20.201Z,38.53
2022-10-18T15:49:46.661Z,42.78
2022-10-18T15:52:38.831Z,34.95
2022-10-18T15:55:30.627Z,53.42
2022-10-18T15:58:19.003Z,36.65
2022-10-18T16:00:47.171Z,38.58
2022-10-18T16:03:14.842Z,36.88
2022-10-18T16:05:41.740Z,36.63
2022-10-18T16:08:22.407Z,40.00
2022-10-18T16:10:52.186Z,36.00
2022-10-18T16:13:19.654Z,39.35
2022-10-18T16:15:50.713Z,32.15
2022-10-18T16:18:20.224Z,34.28
2022-10-18T16:20:48.712Z,27.40
2022-10-18T16:23:38.830Z,34.35
2022-10-18T16:26:05.744Z,38.17
2022-10-18T16:28:32.481Z,31.88
2022-10-18T16:31:03.310Z,45.58
2022-10-18T16:33:31.278Z,33.80
2022-10-18T16:35:58.630Z,31.08
2022-10-18T16:38:35.237Z,36.28
2022-10-18T16:41:11.572Z,32.55
2022-10-18T16:43:39.607Z,32.53
2022-10-18T16:46:21.743Z,33.15
2022-10-18T16:48:55.896Z,36.78
2022-10-18T16:51:26.041Z,33.40
2022-10-18T16:53:56.282Z,40.35
2022-10-18T16:56:31.654Z,32.63
2022-10-18T16:59:04.776Z,37.47
2022-10-18T17:01:32.357Z,28.58
2022-10-18T17:04:06.223Z,31.58
2022-10-18T17:06:35.908Z,41.13
2022-10-18T17:09:23.605Z,49.50
2022-10-18T17:11:50.219Z,35.20
2022-10-18T17:14:16.809Z,35.40
2022-10-18T17:16:45.423Z,36.00
2022-10-18T17:19:22.247Z,30.60
2022-10-18T17:21:48.742Z,30.95
2022-10-18T17:24:15.254Z,33.10
2022-10-18T17:26:41.775Z,36.70
2022-10-18T17:29:11.689Z,25.40
2022-10-18T17:31:38.315Z,34.20
2022-10-18T17:34:05.167Z,25.70
2022-10-18T17:36:33.132Z,29.77
2022-10-18T17:38:59.679Z,33.75
2022-10-18T17:41:26.215Z,29.50
2022-10-18T17:43:52.898Z,31.38
2022-10-18T17:46:20.279Z,32.63
2022-10-18T17:48:46.941Z,26.92
2022-10-18T17:51:20.773Z,29.33
2022-10-18T17:53:50.125Z,29.25
2022-10-18T17:56:24.402Z,47.22
2022-10-18T17:58:56.661Z,40.03
2022-10-18T18:01:24.336Z,39.13
2022-10-18T18:03:56.147Z,31.08
2022-10-18T18:09:07.405Z,26.75
2022-10-18T18:11:35.877Z,31.08
2022-10-18T18:14:09.722Z,31.77
2022-10-18T18:16:38.901Z,30.25
2022-10-18T18:19:09.532Z,42.40
2022-10-18T18:21:37.577Z,37.45
2022-10-18T18:24:04.452Z,28.80
2022-10-18T18:26:32.805Z,38.90
2022-10-18T18:29:00.116Z,32.47
2022-10-18T18:31:34.344Z,30.70
2022-10-18T18:34:05.246Z,33.22
2022-10-18T18:36:35.152Z,23.98
2022-10-18T18:39:02.216Z,28.00
2022-10-18T18:41:32.345Z,38.42
2022-10-18T18:44:02.225Z,38.75
2022-10-18T18:46:30.555Z,35.05
2022-10-18T18:48:58.424Z,39.05
2022-10-18T18:51:25.912Z,28.92
2022-10-18T18:53:57.695Z,34.45
2022-10-18T18:56:26.570Z,36.92
2022-10-18T18:58:59.722Z,33.30
2022-10-18T19:01:29.806Z,35.50
2022-10-18T19:03:58.125Z,34.65
2022-10-18T19:06:34.594Z,29.83
2022-10-18T19:09:03.846Z,36.70
2022-10-18T19:11:39.613Z,33.53
2022-10-18T19:14:08.225Z,37.78
2022-10-18T19:16:46.975Z,37.53
2022-10-18T19:19:16.747Z,31.35
2022-10-18T19:21:55.441Z,36.88
2022-10-18T19:24:29.197Z,33.85
2022-10-18T19:27:04.971Z,37.45
2022-10-18T19:29:34.662Z,34.15
2022-10-18T19:32:04.317Z,33.35
2022-10-18T19:34:32.884Z,37.38
2022-10-18T19:36:59.647Z,35.33
2022-10-18T19:39:31.597Z,37.40
2022-10-18T19:42:03.084Z,32.97
2022-10-18T19:44:34.982Z,33.22
2022-10-18T19:49:28.835Z,37.53
2022-10-18T19:51:57.355Z,30.25
2022-10-18T19:54:25.913Z,34.75
2022-10-18T19:56:58.541Z,38.65
2022-10-18T19:59:31.656Z,38.60
2022-10-18T20:02:01.197Z,42.17
2022-10-18T20:04:27.979Z,35.58
2022-10-18T20:06:57.434Z,32.72
2022-10-18T20:09:24.863Z,35.78
2022-10-18T20:11:55.033Z,37.10
2022-10-18T20:14:27.523Z,34.28
2022-10-18T20:16:54.496Z,34.35
2022-10-18T20:19:21.552Z,36.13
2022-10-18T20:21:48.643Z,45.35
2022-10-18T20:24:15.619Z,37.67
2022-10-18T20:26:46.876Z,33.45
2022-10-18T20:29:13.610Z,37.10
2022-10-18T20:31:41.020Z,42.35
2022-10-18T20:34:12.053Z,37.92
2022-10-18T20:36:40.530Z,39.80
2022-10-18T20:39:16.955Z,42.83
2022-10-18T20:41:43.647Z,46.40
2022-10-18T20:44:16.727Z,41.90
2022-10-18T20:46:44.111Z,47.05
2022-10-18T20:49:14.598Z,42.13
2022-10-18T20:51:41.651Z,45.97
2022-10-18T20:54:08.506Z,36.78
2022-10-18T20:56:37.847Z,45.15
2022-10-18T20:59:06.332Z,40.53
2022-10-18T21:01:35.073Z,49.72
2022-10-18T21:04:04.451Z,39.40
2022-10-18T21:06:38.500Z,36.95
2022-10-18T21:09:11.185Z,40.55
2022-10-18T21:11:46.701Z,45.55
2022-10-18T21:14:16.175Z,39.83
2022-10-18T21:16:43.841Z,36.42
2022-10-18T21:19:23.002Z,36.28
2022-10-18T21:21:52.370Z,37.38
2022-10-18T21:24:23.358Z,42.55
2022-10-18T21:26:50.404Z,36.37
2022-10-18T21:29:27.324Z,40.60
2022-10-18T21:31:56.268Z,39.60
2022-10-18T21:34:22.958Z,38.90
2022-10-18T21:36:49.767Z,37.80
2022-10-18T21:39:20.254Z,38.05
2022-10-18T21:41:47.318Z,42.33
2022-10-18T21:44:19.689Z,43.28
2022-10-18T21:46:49.465Z,56.70
2022-10-18T21:49:16.214Z,64.53
2022-10-18T21:51:43.214Z,50.15
2022-10-18T21:54:16.861Z,54.65
2022-10-18T21:56:43.721Z,58.42
2022-10-18T21:59:16.412Z,35.90
2022-10-18T22:01:46.075Z,49.65
2022-10-18T22:04:21.843Z,47.67
2022-10-18T22:06:49.312Z,38.72
2022-10-18T22:09:19.451Z,47.95
2022-10-18T22:11:51.849Z,44.00
2022-10-18T22:14:19.626Z,42.50
2022-10-18T22:16:48.435Z,39.05
2022-10-18T22:19:19.758Z,41.10
2022-10-18T22:21:57.542Z,39.83
2022-10-18T22:24:24.034Z,35.33
2022-10-18T22:26:51.154Z,39.17
2022-10-18T22:29:19.714Z,32.72
2022-10-18T22:31:52.130Z,35.75
2022-10-18T22:34:24.307Z,34.05
2022-10-18T22:36:51.065Z,37.10
2022-10-18T22:39:17.723Z,35.70
2022-10-18T22:41:44.340Z,36.28
2022-10-18T22:44:12.396Z,37.58
2022-10-18T22:46:39.856Z,34.03
2022-10-18T22:49:07.139Z,35.10
2022-10-18T22:54:02.036Z,35.60
2022-10-18T22:56:28.556Z,36.80
2022-10-18T22:59:02.151Z,34.50
2022-10-18T23:01:28.654Z,31.88
2022-10-18T23:03:56.755Z,37.63
2022-10-18T23:06:29.232Z,37.13
2022-10-18T23:08:57.749Z,35.53
2022-10-18T23:11:26.095Z,33.33
2022-10-18T23:13:52.697Z,32.67
2022-10-18T23:16:20.269Z,34.63
2022-10-18T23:18:55.278Z,33.92
2022-10-18T23:21:24.403Z,36.03
2022-10-18T23:23:52.393Z,36.70
2022-10-18T23:26:26.782Z,32.95
2022-10-18T23:28:57.190Z,30.08
2022-10-18T23:31:27.004Z,31.63
2022-10-18T23:34:03.199Z,31.38
2022-10-18T23:36:30.753Z,29.77
2022-10-18T23:38:57.842Z,28.25
2022-10-18T23:41:25.359Z,29.95
2022-10-18T23:43:55.078Z,31.40
2022-10-18T23:46:22.747Z,32.28
2022-10-18T23:48:52.580Z,32.25
2022-10-18T23:51:19.170Z,26.60
2022-10-18T23:53:48.627Z,25.10
2022-10-18T23:56:19.067Z,26.27
2022-10-18T23:58:46.363Z,26.13
